createdAt,value
2023-01-21T00:03:47.488Z,160.16
2023-01-21T00:08:55.707Z,172.82
2023-01-21T00:14:04.398Z,188.68
2023-01-21T00:19:13.088Z,181.43
2023-01-21T00:24:21.777Z,167.22
2023-01-21T00:29:30.311Z,179.83
2023-01-21T00:34:39.342Z,182.67
2023-01-21T00:39:47.715Z,172.15
2023-01-21T00:44:56.419Z,174.71
2023-01-21T00:50:04.985Z,169.91
2023-01-21T00:55:13.821Z,178.89
2023-01-21T01:00:22.292Z,165.03
2023-01-21T01:05:30.835Z,157.68
2023-01-21T01:10:39.299Z,152.92
2023-01-21T01:15:47.975Z,148.62
2023-01-21T01:20:56.681Z,135.72
2023-01-21T01:26:05.124Z,126.37
2023-01-21T01:31:14.379Z,120.15
2023-01-21T01:36:23.189Z,108.67
2023-01-21T01:41:31.980Z,99.91
2023-01-21T01:46:41.126Z,94.64
2023-01-21T01:51:49.446Z,93.17
2023-01-21T01:56:58.359Z,81.29
2023-01-21T02:02:06.756Z,78.56
2023-01-21T02:07:15.536Z,79.32
2023-01-21T02:12:24.042Z,94.10
2023-01-21T02:17:33.238Z,86.72
2023-01-21T02:22:41.661Z,84.30
2023-01-21T02:27:50.444Z,85.69
2023-01-21T02:32:58.732Z,77.60
2023-01-21T02:38:07.648Z,65.95
2023-01-21T02:43:16.248Z,65.01
2023-01-21T02:48:25.254Z,68.51
2023-01-21T02:53:33.546Z,63.81
2023-01-21T02:58:42.268Z,62.95
2023-01-21T03:03:50.986Z,67.31
2023-01-21T03:08:59.853Z,70.16
2023-01-21T03:14:08.372Z,68.96
2023-01-21T03:19:16.700Z,68.32
2023-01-21T03:24:24.875Z,72.99
2023-01-21T03:29:33.798Z,73.76
2023-01-21T03:34:42.633Z,69.52
2023-01-21T03:39:51.206Z,70.24
2023-01-21T03:44:59.600Z,75.53
2023-01-21T03:50:08.890Z,68.06
2023-01-21T03:55:17.462Z,66.42
2023-01-21T04:00:26.951Z,67.82
2023-01-21T04:05:35.593Z,69.66
2023-01-21T04:10:44.292Z,66.18
2023-01-21T04:15:52.484Z,66.11
2023-01-21T04:21:01.234Z,65.39
2023-01-21T04:26:09.573Z,67.11
2023-01-21T04:31:18.340Z,62.58
2023-01-21T04:36:27.480Z,65.10
2023-01-21T04:41:36.834Z,60.26
2023-01-21T04:46:45.488Z,64.86
2023-01-21T04:51:54.600Z,68.37
2023-01-21T04:57:02.581Z,72.09
2023-01-21T05:02:11.735Z,64.01
2023-01-21T05:07:21.688Z,66.55
2023-01-21T05:12:29.119Z,54.91
2023-01-21T05:17:37.836Z,65.16
2023-01-21T05:22:46.819Z,61.48
2023-01-21T05:27:56.015Z,61.76
2023-01-21T05:33:05.075Z,61.31
2023-01-21T05:38:13.541Z,61.59
2023-01-21T05:43:22.170Z,50.74
2023-01-21T05:48:31.239Z,43.69
2023-01-21T05:53:41.457Z,42.49
2023-01-21T05:58:39.840Z,38.38
2023-01-21T06:03:48.799Z,38.94
2023-01-21T06:08:57.272Z,37.97
2023-01-21T06:14:06.405Z,38.29
2023-01-21T06:19:15.047Z,35.43
2023-01-21T06:24:23.673Z,41.90
2023-01-21T06:29:32.542Z,33.54
2023-01-21T06:34:39.023Z,32.77
2023-01-21T06:39:47.880Z,33.45
2023-01-21T06:44:56.357Z,32.88
2023-01-21T06:50:05.408Z,30.16
2023-01-21T06:55:14.202Z,29.87
2023-01-21T07:00:23.167Z,31.86
2023-01-21T07:05:31.651Z,31.57
2023-01-21T07:10:40.425Z,28.55
2023-01-21T07:15:49.153Z,30.95
2023-01-21T07:20:58.097Z,28.44
2023-01-21T07:26:06.553Z,28.67
2023-01-21T07:31:15.351Z,28.57
2023-01-21T07:36:23.747Z,26.17
2023-01-21T07:41:32.482Z,25.68
2023-01-21T07:46:41.004Z,28.45
2023-01-21T07:51:49.914Z,23.99
2023-01-21T07:56:58.309Z,26.41
2023-01-21T08:02:07.343Z,23.37
2023-01-21T08:07:16.230Z,25.20
2023-01-21T08:12:27.279Z,22.61
2023-01-21T08:17:33.653Z,21.97
2023-01-21T08:22:42.369Z,21.93
2023-01-21T08:27:51.378Z,21.36
2023-01-21T08:33:00.353Z,23.13
2023-01-21T08:38:09.113Z,18.75
2023-01-21T08:43:17.803Z,19.98
2023-01-21T08:48:26.374Z,20.91
2023-01-21T08:53:35.710Z,18.47
2023-01-21T08:58:44.340Z,17.95
2023-01-21T09:03:53.039Z,18.22
2023-01-21T09:09:01.688Z,19.66
2023-01-21T09:14:10.895Z,16.34
2023-01-21T09:19:19.673Z,14.92
2023-01-21T09:24:29.079Z,16.02
2023-01-21T09:29:37.692Z,18.52
2023-01-21T09:34:46.672Z,16.96
2023-01-21T09:39:55.098Z,15.88
2023-01-21T09:45:03.771Z,15.80
2023-01-21T09:50:12.430Z,14.87
2023-01-21T09:55:21.262Z,14.77
2023-01-21T10:00:29.787Z,15.28
2023-01-21T10:05:38.591Z,14.19
2023-01-21T10:10:47.070Z,12.44
2023-01-21T10:15:55.959Z,14.00
2023-01-21T10:21:04.506Z,14.17
2023-01-21T10:26:13.276Z,13.34
2023-01-21T10:31:22.165Z,11.17
2023-01-21T10:36:33.024Z,10.24
2023-01-21T10:41:39.311Z,9.76
2023-01-21T10:46:48.315Z,10.27
2023-01-21T10:51:56.670Z,11.35
2023-01-21T10:57:05.872Z,8.99
2023-01-21T11:02:14.511Z,10.44
2023-01-21T11:07:23.578Z,10.66
2023-01-21T11:12:32.120Z,8.23
2023-01-21T11:17:41.184Z,7.98
2023-01-21T11:22:50.217Z,7.83
2023-01-21T11:27:59.145Z,7.70
2023-01-21T11:33:07.796Z,10.42
2023-01-21T11:38:16.595Z,6.87
2023-01-21T11:43:24.936Z,6.92
2023-01-21T11:48:33.986Z,6.02
2023-01-21T11:53:42.331Z,6.64
2023-01-21T11:58:51.296Z,5.48
2023-01-21T12:03:59.699Z,5.90
2023-01-21T12:09:08.155Z,5.33
2023-01-21T12:14:16.911Z,6.54
2023-01-21T12:19:25.556Z,5.87
2023-01-21T12:24:34.099Z,5.90
2023-01-21T12:29:43.359Z,5.45
2023-01-21T12:34:51.780Z,4.68
2023-01-21T12:40:00.625Z,5.53
2023-01-21T12:45:09.463Z,6.16
2023-01-21T12:50:18.439Z,6.32
2023-01-21T12:55:27.236Z,5.77
2023-01-21T13:00:36.182Z,4.51
2023-01-21T13:05:44.797Z,4.06
2023-01-21T13:10:53.445Z,5.88
2023-01-21T13:16:02.124Z,5.27
2023-01-21T13:21:10.845Z,4.36
2023-01-21T13:26:19.465Z,5.10
2023-01-21T13:31:28.327Z,5.10
2023-01-21T13:36:37.063Z,4.83
2023-01-21T13:41:45.761Z,5.18
2023-01-21T13:46:54.098Z,5.95
2023-01-21T13:52:02.996Z,5.35
2023-01-21T13:57:11.530Z,4.60
2023-01-21T14:02:20.682Z,3.87
2023-01-21T14:07:29.169Z,3.64
2023-01-21T14:12:38.637Z,4.93
2023-01-21T14:17:47.685Z,4.01
2023-01-21T14:23:01.120Z,4.42
2023-01-21T14:28:00.735Z,4.45
2023-01-21T14:33:10.737Z,5.10
2023-01-21T14:38:09.307Z,5.99
2023-01-21T14:43:19.783Z,6.16
2023-01-21T14:48:18.149Z,4.57
2023-01-21T14:53:26.924Z,4.65
2023-01-21T14:58:35.597Z,6.24
2023-01-21T15:03:44.653Z,4.39
2023-01-21T15:08:53.207Z,4.44
2023-01-21T15:14:01.892Z,5.18
2023-01-21T15:19:10.595Z,5.77
2023-01-21T15:24:19.291Z,5.56
2023-01-21T15:29:28.258Z,4.25
2023-01-21T15:34:37.068Z,4.22
2023-01-21T15:39:45.528Z,8.26
2023-01-21T15:44:53.798Z,4.48
2023-01-21T15:50:02.332Z,5.92
2023-01-21T15:55:10.949Z,4.74
2023-01-21T16:00:19.645Z,4.34
2023-01-21T16:05:28.590Z,4.18
2023-01-21T16:10:37.317Z,4.58
2023-01-21T16:15:46.580Z,4.86
2023-01-21T16:20:54.777Z,3.93
2023-01-21T16:26:03.579Z,4.16
2023-01-21T16:31:12.735Z,4.64
2023-01-21T16:36:21.400Z,4.18
2023-01-21T16:41:29.961Z,4.37
2023-01-21T16:46:38.952Z,4.24
2023-01-21T16:51:47.223Z,4.85
2023-01-21T16:56:55.775Z,3.88
2023-01-21T17:02:04.116Z,3.79
2023-01-21T17:07:12.892Z,3.72
2023-01-21T17:12:20.944Z,3.92
2023-01-21T17:17:29.606Z,3.97
2023-01-21T17:22:37.999Z,3.85
2023-01-21T17:27:46.731Z,4.27
2023-01-21T17:32:54.978Z,4.63
2023-01-21T17:38:03.506Z,4.12
2023-01-21T17:43:11.802Z,3.52
2023-01-21T17:48:20.294Z,4.26
2023-01-21T17:53:28.727Z,4.15
2023-01-21T17:58:37.152Z,3.96
2023-01-21T18:03:45.541Z,3.26
2023-01-21T18:08:54.479Z,3.89
2023-01-21T18:14:02.997Z,3.96
2023-01-21T18:19:11.568Z,4.30
2023-01-21T18:24:19.829Z,5.41
2023-01-21T18:29:28.445Z,4.27
2023-01-21T18:39:44.848Z,5.43
2023-01-21T18:44:52.961Z,4.76
2023-01-21T18:50:01.931Z,5.47
2023-01-21T18:55:10.194Z,4.27
2023-01-21T19:00:19.084Z,4.90
2023-01-21T19:05:27.383Z,5.47
2023-01-21T19:10:36.428Z,5.56
2023-01-21T19:15:44.929Z,6.59
2023-01-21T19:20:53.860Z,5.86
2023-01-21T19:26:02.124Z,5.79
2023-01-21T19:31:11.770Z,5.61
2023-01-21T19:36:20.880Z,6.26
2023-01-21T19:41:30.158Z,6.26
2023-01-21T19:46:38.911Z,6.42
2023-01-21T19:51:47.293Z,6.46
2023-01-21T19:56:55.842Z,6.63
2023-01-21T20:02:04.237Z,6.88
2023-01-21T20:07:12.379Z,7.88
2023-01-21T20:12:21.179Z,7.36
2023-01-21T20:17:29.737Z,7.41
2023-01-21T20:22:38.413Z,9.95
2023-01-21T20:27:47.003Z,8.66
2023-01-21T20:32:55.414Z,7.82
2023-01-21T20:38:03.806Z,9.82
2023-01-21T20:43:12.514Z,8.77
2023-01-21T20:48:21.567Z,10.81
2023-01-21T20:53:29.294Z,9.66
2023-01-21T20:58:37.710Z,9.69
2023-01-21T21:03:46.198Z,10.49
2023-01-21T21:08:54.719Z,10.94
2023-01-21T21:14:03.543Z,11.63
2023-01-21T21:19:15.210Z,11.40
2023-01-21T21:24:13.865Z,13.28
2023-01-21T21:29:22.195Z,12.02
2023-01-21T21:34:31.179Z,12.31
2023-01-21T21:39:39.510Z,13.60
2023-01-21T21:44:48.313Z,13.61
2023-01-21T21:49:56.950Z,12.25
2023-01-21T21:55:05.514Z,13.81
2023-01-21T22:00:13.839Z,13.31
2023-01-21T22:05:22.532Z,14.81
2023-01-21T22:10:30.911Z,15.08
2023-01-21T22:15:40.097Z,15.92
2023-01-21T22:20:48.502Z,15.77
2023-01-21T22:25:57.246Z,16.10
2023-01-21T22:31:05.793Z,16.11
2023-01-21T22:36:14.552Z,16.59
2023-01-21T22:41:23.064Z,15.88
2023-01-21T22:46:31.794Z,14.83
2023-01-21T22:51:39.924Z,17.17
2023-01-21T22:56:52.482Z,14.51
2023-01-21T23:01:56.767Z,15.24
2023-01-21T23:07:05.352Z,14.15
2023-01-21T23:12:13.440Z,16.47
2023-01-21T23:17:22.477Z,15.58
2023-01-21T23:22:30.878Z,15.63
2023-01-21T23:27:39.341Z,16.24
2023-01-21T23:32:47.940Z,15.17
2023-01-21T23:37:56.280Z,15.51
2023-01-21T23:43:04.655Z,16.86
2023-01-21T23:48:13.337Z,16.58
2023-01-21T23:53:21.720Z,16.93
2023-01-21T23:58:30.354Z,16.04
